createdAt,value
2022-11-29T00:01:31.033Z,9.65
2022-11-29T00:03:58.425Z,7.53
2022-11-29T00:06:31.952Z,5.65
2022-11-29T00:09:00.887Z,9.88
2022-11-29T00:11:49.175Z,5.57
2022-11-29T00:14:17.950Z,9.90
2022-11-29T00:16:44.699Z,7.78
2022-11-29T00:19:13.006Z,7.05
2022-11-29T00:21:39.744Z,10.68
2022-11-29T00:24:06.759Z,8.65
2022-11-29T00:26:33.747Z,11.98
2022-11-29T00:29:00.916Z,9.85
2022-11-29T00:31:30.449Z,8.43
2022-11-29T00:33:58.986Z,7.30
2022-11-29T00:36:27.080Z,8.98
2022-11-29T00:38:53.808Z,12.23
2022-11-29T00:41:20.507Z,7.78
2022-11-29T00:43:47.197Z,8.52
2022-11-29T00:46:13.981Z,8.68
2022-11-29T00:48:40.776Z,12.82
2022-11-29T00:51:08.357Z,9.10
2022-11-29T00:53:36.051Z,8.27
2022-11-29T00:56:04.539Z,8.93
2022-11-29T00:58:31.338Z,9.73
2022-11-29T01:00:58.232Z,7.32
2022-11-29T01:03:25.255Z,10.70
2022-11-29T01:05:51.926Z,6.57
2022-11-29T01:08:19.233Z,3.80
2022-11-29T01:10:46.016Z,6.07
2022-11-29T01:13:12.729Z,10.52
2022-11-29T01:15:39.490Z,5.45
2022-11-29T01:18:06.184Z,7.25
2022-11-29T01:20:32.836Z,6.75
2022-11-29T01:22:59.487Z,7.03
2022-11-29T01:25:26.158Z,6.05
2022-11-29T01:27:52.812Z,5.60
2022-11-29T01:30:19.558Z,9.27
2022-11-29T01:32:46.240Z,12.80
2022-11-29T01:35:12.924Z,11.40
2022-11-29T01:37:39.613Z,15.65
2022-11-29T01:40:07.019Z,9.13
2022-11-29T01:42:33.798Z,8.68
2022-11-29T01:45:05.575Z,7.88
2022-11-29T01:47:32.534Z,10.65
2022-11-29T01:49:59.839Z,7.28
2022-11-29T01:52:30.638Z,9.32
2022-11-29T01:55:01.668Z,11.05
2022-11-29T01:57:29.282Z,9.82
2022-11-29T02:00:01.578Z,10.05
2022-11-29T02:02:36.893Z,8.43
2022-11-29T02:05:04.801Z,9.73
2022-11-29T02:07:31.654Z,8.98
2022-11-29T02:09:58.604Z,13.85
2022-11-29T02:12:59.570Z,10.38
2022-11-29T02:15:49.738Z,10.80
2022-11-29T02:19:00.720Z,8.13
2022-11-29T02:21:35.622Z,8.70
2022-11-29T02:24:05.407Z,10.32
2022-11-29T02:26:52.310Z,6.38
2022-11-29T02:29:24.814Z,10.75
2022-11-29T02:32:19.183Z,9.18
2022-11-29T02:34:46.052Z,6.97
2022-11-29T02:37:24.822Z,8.25
2022-11-29T02:40:22.752Z,12.13
2022-11-29T02:43:19.361Z,11.02
2022-11-29T02:45:51.392Z,8.50
2022-11-29T02:48:41.266Z,7.10
2022-11-29T02:51:39.347Z,9.80
2022-11-29T02:54:08.799Z,14.02
2022-11-29T02:56:56.762Z,11.20
2022-11-29T02:59:43.132Z,12.35
2022-11-29T03:02:31.249Z,9.63
2022-11-29T03:05:13.639Z,10.27
2022-11-29T03:08:10.992Z,9.38
2022-11-29T03:11:16.134Z,7.30
2022-11-29T03:14:13.144Z,9.40
2022-11-29T03:17:00.462Z,9.52
2022-11-29T03:19:39.836Z,9.90
2022-11-29T03:22:30.862Z,8.97
2022-11-29T03:25:09.041Z,11.80
2022-11-29T03:27:44.008Z,7.60
2022-11-29T03:30:13.766Z,8.48
2022-11-29T03:33:03.070Z,11.48
2022-11-29T03:35:53.205Z,11.52
2022-11-29T03:38:31.341Z,10.38
2022-11-29T03:41:14.094Z,8.98
2022-11-29T03:43:47.415Z,7.35
2022-11-29T03:46:22.953Z,10.73
2022-11-29T03:48:55.712Z,9.27
2022-11-29T03:51:58.125Z,5.60
2022-11-29T03:54:35.131Z,10.15
2022-11-29T03:57:02.090Z,8.00
2022-11-29T04:00:07.248Z,7.47
2022-11-29T04:02:52.887Z,11.40
2022-11-29T04:05:33.361Z,10.82
2022-11-29T04:08:21.935Z,13.27
2022-11-29T04:11:19.783Z,17.08
2022-11-29T04:13:46.408Z,9.32
2022-11-29T04:16:27.122Z,6.53
2022-11-29T04:19:41.279Z,8.05
2022-11-29T04:22:50.499Z,9.85
2022-11-29T04:25:39.886Z,10.73
2022-11-29T04:28:40.279Z,8.73
2022-11-29T04:34:12.914Z,6.28
2022-11-29T04:37:18.608Z,8.20
2022-11-29T04:40:14.083Z,11.68
2022-11-29T04:43:19.124Z,10.85
2022-11-29T04:45:55.323Z,11.73
2022-11-29T04:48:37.407Z,6.32
2022-11-29T04:51:37.866Z,10.90
2022-11-29T04:54:20.950Z,8.13
2022-11-29T04:56:53.874Z,6.95
2022-11-29T05:00:16.221Z,10.10
2022-11-29T05:02:49.118Z,8.43
2022-11-29T05:05:21.908Z,10.00
2022-11-29T05:08:12.813Z,9.48
2022-11-29T05:10:49.309Z,6.50
2022-11-29T05:13:26.187Z,15.75
2022-11-29T05:16:11.377Z,7.47
2022-11-29T05:19:02.034Z,9.75
2022-11-29T05:21:53.100Z,13.85
2022-11-29T05:24:31.173Z,26.35
2022-11-29T05:27:23.466Z,17.52
2022-11-29T05:30:10.454Z,7.95
2022-11-29T05:33:11.015Z,12.65
2022-11-29T05:36:05.675Z,8.00
2022-11-29T05:38:50.949Z,12.35
2022-11-29T05:41:46.004Z,11.55
2022-11-29T05:44:19.027Z,12.63
2022-11-29T05:46:59.090Z,9.85
2022-11-29T05:49:38.138Z,8.23
2022-11-29T05:52:25.034Z,9.20
2022-11-29T05:55:28.724Z,9.85
2022-11-29T05:58:08.577Z,10.13
2022-11-29T06:00:54.223Z,8.00
2022-11-29T06:03:51.079Z,10.32
2022-11-29T06:06:41.038Z,7.13
2022-11-29T06:09:28.185Z,5.97
2022-11-29T06:12:09.796Z,9.55
2022-11-29T06:14:57.388Z,8.38
2022-11-29T06:17:52.337Z,14.40
2022-11-29T06:20:34.192Z,8.07
2022-11-29T06:23:17.854Z,11.98
2022-11-29T06:25:50.636Z,17.52
2022-11-29T06:28:49.892Z,12.88
2022-11-29T06:31:28.085Z,12.63
2022-11-29T06:34:15.662Z,8.25
2022-11-29T06:36:52.022Z,10.23
2022-11-29T06:39:19.292Z,18.70
2022-11-29T06:41:47.097Z,12.32
2022-11-29T06:44:14.048Z,13.25
2022-11-29T06:46:45.773Z,9.85
2022-11-29T06:49:30.005Z,16.08
2022-11-29T06:52:40.670Z,10.45
2022-11-29T06:55:16.527Z,9.52
2022-11-29T06:57:53.295Z,9.35
2022-11-29T07:00:47.623Z,14.15
2022-11-29T07:03:34.276Z,9.35
2022-11-29T07:06:11.149Z,7.85
2022-11-29T07:08:40.227Z,6.65
2022-11-29T07:11:08.972Z,9.65
2022-11-29T07:13:35.927Z,10.38
2022-11-29T07:16:17.360Z,5.97
2022-11-29T07:18:53.758Z,10.10
2022-11-29T07:21:40.335Z,9.18
2022-11-29T07:24:38.023Z,8.93
2022-11-29T07:27:23.087Z,7.15
2022-11-29T07:29:55.488Z,8.05
2022-11-29T07:33:03.808Z,6.95
2022-11-29T07:35:45.257Z,9.40
2022-11-29T07:38:50.166Z,8.98
2022-11-29T07:41:51.723Z,7.72
2022-11-29T07:44:35.536Z,8.05
2022-11-29T07:47:02.278Z,6.28
2022-11-29T07:49:29.018Z,8.75
2022-11-29T07:51:55.834Z,8.50
2022-11-29T07:54:22.651Z,9.82
2022-11-29T07:56:49.307Z,28.05
2022-11-29T07:59:16.010Z,20.55
2022-11-29T08:01:42.697Z,18.27
2022-11-29T08:04:09.730Z,14.55
2022-11-29T08:06:36.931Z,19.85
2022-11-29T08:09:04.622Z,24.00
2022-11-29T08:11:31.293Z,19.02
2022-11-29T08:13:59.325Z,16.27
2022-11-29T08:16:26.256Z,13.63
2022-11-29T08:18:53.106Z,14.55
2022-11-29T08:21:19.759Z,10.52
2022-11-29T08:23:47.743Z,9.85
2022-11-29T08:26:16.078Z,14.85
2022-11-29T08:28:42.804Z,15.13
2022-11-29T08:31:11.296Z,11.32
2022-11-29T08:33:40.050Z,11.02
2022-11-29T08:36:13.316Z,13.88
2022-11-29T08:38:40.302Z,10.27
2022-11-29T08:41:10.225Z,14.43
2022-11-29T08:43:37.068Z,14.52
2022-11-29T08:46:04.037Z,9.10
2022-11-29T08:48:30.812Z,9.98
2022-11-29T08:50:58.092Z,13.50
2022-11-29T08:53:43.672Z,14.18
2022-11-29T08:59:05.766Z,17.05
2022-11-29T09:01:32.568Z,14.45
2022-11-29T09:04:07.645Z,14.48
2022-11-29T09:06:39.399Z,19.45
2022-11-29T09:09:06.249Z,19.10
2022-11-29T09:11:34.571Z,15.07
2022-11-29T09:14:04.412Z,12.02
2022-11-29T09:16:34.235Z,13.23
2022-11-29T09:19:01.535Z,13.80
2022-11-29T09:21:30.290Z,9.52
2022-11-29T09:24:00.015Z,24.98
2022-11-29T09:26:29.913Z,11.30
2022-11-29T09:29:03.828Z,13.95
2022-11-29T09:31:31.564Z,12.10
2022-11-29T09:33:58.652Z,13.93
2022-11-29T09:36:28.849Z,9.27
2022-11-29T09:39:00.691Z,16.90
2022-11-29T09:41:49.717Z,22.65
2022-11-29T09:44:22.114Z,16.05
2022-11-29T09:47:03.837Z,11.15
2022-11-29T09:49:46.543Z,16.73
2022-11-29T09:52:13.165Z,15.15
2022-11-29T09:55:17.472Z,13.65
2022-11-29T09:57:44.820Z,18.30
2022-11-29T10:00:17.390Z,16.58
2022-11-29T10:02:51.472Z,17.27
2022-11-29T10:05:22.262Z,21.23
2022-11-29T10:08:03.124Z,11.20
2022-11-29T10:10:31.930Z,12.13
2022-11-29T10:13:19.901Z,18.77
2022-11-29T10:15:51.376Z,14.90
2022-11-29T10:18:32.252Z,15.90
2022-11-29T10:21:04.663Z,15.38
2022-11-29T10:23:43.730Z,16.90
2022-11-29T10:26:12.658Z,14.50
2022-11-29T10:28:47.631Z,18.13
2022-11-29T10:31:26.899Z,15.15
2022-11-29T10:33:55.504Z,13.40
2022-11-29T10:36:26.426Z,9.85
2022-11-29T10:38:59.081Z,17.10
2022-11-29T10:41:27.046Z,16.23
2022-11-29T10:43:57.946Z,14.52
2022-11-29T10:46:30.076Z,14.25
2022-11-29T10:48:59.341Z,8.40
2022-11-29T10:51:26.120Z,8.27
2022-11-29T10:53:54.676Z,9.60
2022-11-29T10:56:29.576Z,9.13
2022-11-29T10:59:03.345Z,8.50
2022-11-29T11:01:31.830Z,9.82
2022-11-29T11:04:00.527Z,8.38
2022-11-29T11:06:49.276Z,8.18
2022-11-29T11:09:20.730Z,8.32
2022-11-29T11:11:53.499Z,15.05
2022-11-29T11:14:27.947Z,5.35
2022-11-29T11:16:54.809Z,9.65
2022-11-29T11:19:33.455Z,8.70
2022-11-29T11:22:03.979Z,11.75
2022-11-29T11:24:33.815Z,10.10
2022-11-29T11:27:01.456Z,10.80
2022-11-29T11:29:43.727Z,6.28
2022-11-29T11:32:20.513Z,11.55
2022-11-29T11:34:59.163Z,13.02
2022-11-29T11:37:56.012Z,7.47
2022-11-29T11:40:29.189Z,12.65
2022-11-29T11:42:59.342Z,9.55
2022-11-29T11:45:35.298Z,9.63
2022-11-29T11:48:11.130Z,15.15
2022-11-29T11:50:43.648Z,11.82
2022-11-29T11:53:35.682Z,17.13
2022-11-29T11:56:08.447Z,15.25
2022-11-29T11:58:49.380Z,9.50
2022-11-29T12:01:36.407Z,10.45
2022-11-29T12:04:30.590Z,14.57
2022-11-29T12:07:01.381Z,13.55
2022-11-29T12:09:48.312Z,10.57
2022-11-29T12:12:27.778Z,10.38
2022-11-29T12:14:56.607Z,13.03
2022-11-29T12:17:38.121Z,20.60
2022-11-29T12:20:07.758Z,7.28
2022-11-29T12:22:47.896Z,10.82
2022-11-29T12:25:21.159Z,8.32
2022-11-29T12:27:50.200Z,7.22
2022-11-29T12:30:18.525Z,7.32
2022-11-29T12:33:08.240Z,10.18
2022-11-29T12:35:37.887Z,12.77
2022-11-29T12:38:29.454Z,10.30
2022-11-29T12:41:20.757Z,9.45
2022-11-29T12:44:08.475Z,8.30
2022-11-29T12:46:36.148Z,5.90
2022-11-29T12:49:30.414Z,12.13
2022-11-29T12:52:18.505Z,8.57
2022-11-29T12:55:08.284Z,13.05
2022-11-29T12:57:58.359Z,12.32
2022-11-29T13:00:28.820Z,11.65
2022-11-29T13:03:18.927Z,12.63
2022-11-29T13:06:04.270Z,10.10
2022-11-29T13:08:43.249Z,6.75
2022-11-29T13:11:18.900Z,9.88
2022-11-29T13:14:20.250Z,7.63
2022-11-29T13:17:00.105Z,7.07
2022-11-29T13:19:55.433Z,8.98
2022-11-29T13:23:09.531Z,8.70
2022-11-29T13:25:40.536Z,11.00
2022-11-29T13:28:30.055Z,8.93
2022-11-29T13:31:20.574Z,6.40
2022-11-29T13:33:53.648Z,8.73
2022-11-29T13:36:35.168Z,7.43
2022-11-29T13:39:35.024Z,12.52
2022-11-29T13:42:17.439Z,6.20
2022-11-29T13:45:22.997Z,12.15
2022-11-29T13:48:00.771Z,7.45
2022-11-29T13:50:46.144Z,9.98
2022-11-29T13:53:20.547Z,8.15
2022-11-29T13:56:01.019Z,9.52
2022-11-29T13:58:40.121Z,10.18
2022-11-29T14:01:12.910Z,9.05
2022-11-29T14:04:09.499Z,8.20
2022-11-29T14:06:38.334Z,7.75
2022-11-29T14:09:28.539Z,14.48
2022-11-29T14:11:55.236Z,9.23
2022-11-29T14:14:51.229Z,11.52
2022-11-29T14:17:41.676Z,13.18
2022-11-29T14:20:32.397Z,14.50
2022-11-29T14:23:05.367Z,8.98
2022-11-29T14:25:51.108Z,17.05
2022-11-29T14:28:21.576Z,15.27
2022-11-29T14:30:53.542Z,15.77
2022-11-29T14:33:50.954Z,9.30
2022-11-29T14:36:20.498Z,12.48
2022-11-29T14:39:21.197Z,7.15
2022-11-29T14:41:50.886Z,9.32
2022-11-29T14:44:32.113Z,8.70
2022-11-29T14:47:07.589Z,6.38
2022-11-29T14:49:43.454Z,15.98
2022-11-29T14:52:19.999Z,11.32
2022-11-29T14:55:15.637Z,9.85
2022-11-29T14:58:04.084Z,9.68
2022-11-29T15:00:48.757Z,12.43
2022-11-29T15:03:32.996Z,8.27
2022-11-29T15:06:09.273Z,6.35
2022-11-29T15:08:52.706Z,11.52
2022-11-29T15:11:30.544Z,12.63
2022-11-29T15:14:15.818Z,12.75
2022-11-29T15:17:00.757Z,14.35
2022-11-29T15:19:49.929Z,10.70
2022-11-29T15:22:22.275Z,11.60
2022-11-29T15:24:53.798Z,10.68
2022-11-29T15:27:21.000Z,10.43
2022-11-29T15:29:48.992Z,9.73
2022-11-29T15:32:24.120Z,13.65
2022-11-29T15:34:53.356Z,12.65
2022-11-29T15:37:32.260Z,7.93
2022-11-29T15:40:14.867Z,9.75
2022-11-29T15:42:44.774Z,11.73
2022-11-29T15:45:25.883Z,9.20
2022-11-29T15:47:52.978Z,12.98
2022-11-29T15:50:44.004Z,13.48
2022-11-29T15:53:18.387Z,20.80
2022-11-29T15:55:49.356Z,15.25
2022-11-29T15:58:17.284Z,14.93
2022-11-29T16:00:49.510Z,18.30
2022-11-29T16:03:26.027Z,17.23
2022-11-29T16:06:30.251Z,15.85
2022-11-29T16:08:57.293Z,15.63
2022-11-29T16:11:27.844Z,13.75
2022-11-29T16:14:12.364Z,19.60
2022-11-29T16:16:40.672Z,17.50
2022-11-29T16:19:31.232Z,18.55
2022-11-29T16:22:11.386Z,22.63
2022-11-29T16:24:48.250Z,21.50
2022-11-29T16:27:15.151Z,17.92
2022-11-29T16:29:47.529Z,21.38
2022-11-29T16:32:33.165Z,18.08
2022-11-29T16:35:12.547Z,24.77
2022-11-29T16:37:42.529Z,25.40
2022-11-29T16:40:25.697Z,20.63
2022-11-29T16:43:04.408Z,19.80
2022-11-29T16:45:38.048Z,20.17
2022-11-29T16:48:27.467Z,26.70
2022-11-29T16:51:13.327Z,24.67
2022-11-29T16:53:47.590Z,24.98
2022-11-29T16:56:17.877Z,26.08
2022-11-29T17:01:32.592Z,35.13
2022-11-29T17:04:00.617Z,33.95
2022-11-29T17:06:29.444Z,26.58
2022-11-29T17:08:58.947Z,35.85
2022-11-29T17:11:26.387Z,30.02
2022-11-29T17:13:53.095Z,29.63
2022-11-29T17:16:22.237Z,31.33
2022-11-29T17:18:49.393Z,27.85
2022-11-29T17:21:20.907Z,31.95
2022-11-29T17:23:48.027Z,27.27
2022-11-29T17:26:15.492Z,28.63
2022-11-29T17:28:43.812Z,32.75
2022-11-29T17:31:12.138Z,35.83
2022-11-29T17:33:39.286Z,36.92
2022-11-29T17:36:08.123Z,37.75
2022-11-29T17:38:35.197Z,38.80
2022-11-29T17:41:16.332Z,43.60
2022-11-29T17:43:43.042Z,37.15
2022-11-29T17:46:11.563Z,39.25
2022-11-29T17:48:41.035Z,39.42
2022-11-29T17:51:28.792Z,42.30
2022-11-29T17:53:55.231Z,43.88
2022-11-29T17:56:24.768Z,44.40
2022-11-29T17:58:56.082Z,44.80
2022-11-29T18:01:25.538Z,40.63
2022-11-29T18:03:57.695Z,43.03
2022-11-29T18:06:30.383Z,40.88
2022-11-29T18:08:59.790Z,46.13
2022-11-29T18:11:45.255Z,35.70
2022-11-29T18:14:16.300Z,38.92
2022-11-29T18:16:45.137Z,45.47
2022-11-29T18:19:14.247Z,39.42
2022-11-29T18:21:40.966Z,41.75
2022-11-29T18:24:08.688Z,38.50
2022-11-29T18:26:36.802Z,37.53
2022-11-29T18:29:05.375Z,41.17
2022-11-29T18:31:34.768Z,43.53
2022-11-29T18:34:07.005Z,45.10
2022-11-29T18:36:35.841Z,42.97
2022-11-29T18:39:06.009Z,47.47
2022-11-29T18:41:32.907Z,44.28
2022-11-29T18:44:02.755Z,45.92
2022-11-29T18:46:33.291Z,41.28
2022-11-29T18:49:03.182Z,46.15
2022-11-29T18:51:31.443Z,42.75
2022-11-29T18:53:58.904Z,39.83
2022-11-29T18:56:28.605Z,39.00
2022-11-29T18:58:58.818Z,43.40
2022-11-29T19:03:55.918Z,37.38
2022-11-29T19:06:25.996Z,41.92
2022-11-29T19:08:53.270Z,43.83
2022-11-29T19:11:22.629Z,44.22
2022-11-29T19:13:57.684Z,39.43
2022-11-29T19:16:25.501Z,40.08
2022-11-29T19:18:54.273Z,44.13
2022-11-29T19:21:22.835Z,45.55
2022-11-29T19:23:55.033Z,42.40
2022-11-29T19:26:23.073Z,41.72
2022-11-29T19:28:50.344Z,43.78
2022-11-29T19:31:18.873Z,47.33
2022-11-29T19:33:46.483Z,48.05
2022-11-29T19:36:20.475Z,51.35
2022-11-29T19:38:52.960Z,46.60
2022-11-29T19:41:34.669Z,44.28
2022-11-29T19:44:04.379Z,44.75
2022-11-29T19:46:36.885Z,51.22
2022-11-29T19:49:05.020Z,48.13
2022-11-29T19:51:31.974Z,46.47
2022-11-29T19:54:01.246Z,49.55
2022-11-29T19:56:29.423Z,46.47
2022-11-29T19:58:56.555Z,47.03
2022-11-29T20:01:27.970Z,55.85
2022-11-29T20:03:58.667Z,49.28
2022-11-29T20:06:29.823Z,47.67
2022-11-29T20:08:57.314Z,50.83
2022-11-29T20:11:25.139Z,49.92
2022-11-29T20:13:54.894Z,53.50
2022-11-29T20:16:22.451Z,53.50
2022-11-29T20:18:51.089Z,54.72
2022-11-29T20:21:20.756Z,53.05
2022-11-29T20:23:47.654Z,58.63
2022-11-29T20:26:16.950Z,65.90
2022-11-29T20:28:44.585Z,57.08
2022-11-29T20:31:17.710Z,60.95
2022-11-29T20:33:46.144Z,53.40
2022-11-29T20:36:41.701Z,54.10
2022-11-29T20:39:45.697Z,51.92
2022-11-29T20:42:37.384Z,64.03
2022-11-29T20:45:06.857Z,57.97
2022-11-29T20:47:46.408Z,57.10
2022-11-29T20:50:24.067Z,60.80
2022-11-29T20:53:02.594Z,50.95
2022-11-29T20:55:29.275Z,52.22
2022-11-29T20:57:56.026Z,60.53
2022-11-29T21:00:22.924Z,47.22
2022-11-29T21:02:49.836Z,61.78
2022-11-29T21:05:16.726Z,61.00
2022-11-29T21:07:44.040Z,58.08
2022-11-29T21:10:11.297Z,69.65
2022-11-29T21:12:38.751Z,69.80
2022-11-29T21:15:06.170Z,66.57
2022-11-29T21:17:33.986Z,66.10
2022-11-29T21:20:01.355Z,73.13
2022-11-29T21:23:00.474Z,73.03
2022-11-29T21:25:27.410Z,71.57
2022-11-29T21:27:55.461Z,59.28
2022-11-29T21:30:25.468Z,59.20
2022-11-29T21:32:52.596Z,70.00
2022-11-29T21:35:19.660Z,81.68
2022-11-29T21:37:46.618Z,59.45
2022-11-29T21:40:14.544Z,68.00
2022-11-29T21:42:41.307Z,68.20
2022-11-29T21:45:14.866Z,73.03
2022-11-29T21:47:43.860Z,80.20
2022-11-29T21:50:11.775Z,72.97
2022-11-29T21:52:38.606Z,70.20
2022-11-29T21:55:05.728Z,71.07
2022-11-29T21:57:32.400Z,80.97
2022-11-29T21:59:59.046Z,78.88
2022-11-29T22:02:25.791Z,114.07
2022-11-29T22:04:52.459Z,87.07
2022-11-29T22:07:19.180Z,86.90
2022-11-29T22:09:45.907Z,70.75
2022-11-29T22:12:33.104Z,80.20
2022-11-29T22:14:59.275Z,82.93
2022-11-29T22:17:25.933Z,125.75
2022-11-29T22:19:52.636Z,128.27
2022-11-29T22:22:19.353Z,184.73
2022-11-29T22:24:46.195Z,114.15
2022-11-29T22:27:13.134Z,143.52
2022-11-29T22:29:39.808Z,115.75
2022-11-29T22:32:06.527Z,116.72
2022-11-29T22:34:33.162Z,75.00
2022-11-29T22:36:59.818Z,99.55
2022-11-29T22:39:26.569Z,152.32
2022-11-29T22:41:54.908Z,168.82
2022-11-29T22:44:22.824Z,111.18
2022-11-29T22:46:49.687Z,117.72
2022-11-29T22:49:16.498Z,114.43
2022-11-29T22:51:43.392Z,158.43
2022-11-29T22:54:16.416Z,140.77
2022-11-29T22:56:44.250Z,152.10
2022-11-29T22:59:11.069Z,137.27
2022-11-29T23:01:39.192Z,78.65
2022-11-29T23:04:08.173Z,84.53
2022-11-29T23:06:37.417Z,82.82
2022-11-29T23:09:10.500Z,66.45
2022-11-29T23:11:37.709Z,67.07
2022-11-29T23:14:04.892Z,62.13
2022-11-29T23:16:32.866Z,58.97
2022-11-29T23:19:00.678Z,55.28
2022-11-29T23:21:31.233Z,62.53
2022-11-29T23:24:00.785Z,61.70
2022-11-29T23:26:36.306Z,57.85
2022-11-29T23:29:04.060Z,58.20
2022-11-29T23:31:31.646Z,52.25
2022-11-29T23:33:58.560Z,58.13
2022-11-29T23:36:25.717Z,51.75
2022-11-29T23:38:52.643Z,53.38
2022-11-29T23:41:19.572Z,50.28
2022-11-29T23:43:46.329Z,49.53
2022-11-29T23:46:21.166Z,54.22
2022-11-29T23:48:48.462Z,53.63
2022-11-29T23:51:15.886Z,56.28
2022-11-29T23:53:43.429Z,53.58
2022-11-29T23:56:15.910Z,49.60
2022-11-29T23:58:43.424Z,51.53
